Ship Status Report: callsign SLRE

sailwx.info

Track history (hours):
 
Tides and Currents Weather Stations Pressure Air Temp Water Temp Dewpoint Dewpoint Depression Visibility Wind Speed Wind Dir Waves Ship Positions

Callsign SLRE (name unknown)

Last reported at 2018-Feb-18 06:18 UTC. Time now 2018-Feb-22 01:25 UTC.
Position N 57°09' E 011°57'.

AWS

Date/timePositionNaut miles runAvg speedWind from/ knotsBaromVisibWave heightAir tempDewpointWater temp
2018-Feb-18 06:18N 57°09' E 011°57'1 2.6
2018-Feb-18 05:59N 57°10' E 011°57'3 4.5
2018-Feb-18 05:24N 57°12' E 011°54'5 9.3
2018-Feb-18 04:50N 57°16' E 011°47'3 8.9
2018-Feb-18 04:30N 57°18' E 011°44'5 9.1
2018-Feb-18 04:01N 57°21' E 011°38'5 9.5
2018-Feb-18 03:30N 57°25' E 011°33'5 9.1
2018-Feb-18 03:00N 57°28' E 011°28'4 8.5
2018-Feb-18 02:31N 57°32' E 011°22'4 8.0
2018-Feb-18 02:01N 57°35' E 011°17'4 8.0
2018-Feb-18 01:30N 57°38' E 011°12'4 8.1
2018-Feb-18 00:59N 57°41' E 011°07'5 8.4
2018-Feb-18 00:22N 57°45' E 011°01'3 8.8
2018-Feb-18 00:00N 57°47' E 010°57'3 5.1
2018-Feb-17 23:26N 57°50' E 010°55'4 4.6
2018-Feb-17 22:34N 57°53' E 010°50'0 2.3
2018-Feb-17 22:27N 57°53' E 010°49'6 0.8
2018-Feb-17 14:31N 57°52' E 010°37'0 2.7
2018-Feb-17 14:22N 57°52' E 010°38'1 2.7
2018-Feb-17 13:54N 57°52' E 010°40'1 2.7
2018-Feb-17 13:30N 57°52' E 010°42'1 2.7
2018-Feb-17 13:00N 57°52' E 010°45'1 2.6
2018-Feb-17 12:30N 57°52' E 010°47'1 2.5
2018-Feb-17 12:00N 57°53' E 010°49'1 2.5
2018-Feb-17 11:30N 57°53' E 010°52'1 2.6
2018-Feb-17 11:00N 57°54' E 010°54'1 2.7
2018-Feb-17 10:31N 57°55' E 010°55'1 2.9
2018-Feb-17 10:00N 57°56' E 010°57'1 2.8
2018-Feb-17 09:30N 57°57' E 010°59'1 2.8
2018-Feb-17 09:00N 57°58' E 011°01'2 3.5
2018-Feb-17 08:30N 57°58' E 011°04'1 2.3
2018-Feb-17 08:00N 57°58' E 011°03'1 2.5
2018-Feb-17 07:30N 57°57' E 011°01'1 2.6
2018-Feb-17 07:00N 57°55' E 011°01'1 2.7
2018-Feb-17 06:31N 57°54' E 010°59'1 2.8
2018-Feb-17 06:00N 57°54' E 010°57'1 2.8
2018-Feb-17 05:30N 57°53' E 010°54'1 2.9
2018-Feb-17 05:00N 57°52' E 010°52'2 3.1
2018-Feb-17 04:18N 57°52' E 010°48'3 0.6
2018-Feb-16 23:33N 57°53' E 010°43'1 9.0
2018-Feb-16 23:30N 57°53' E 010°44'2 0.4
2018-Feb-16 19:22N 57°51' E 010°42'1 2.5
2018-Feb-16 19:00N 57°51' E 010°44'1 2.5
2018-Feb-16 18:30N 57°52' E 010°46'1 2.6
2018-Feb-16 18:00N 57°52' E 010°48'1 2.6
2018-Feb-16 17:30N 57°52' E 010°51'1 2.6
2018-Feb-16 16:59N 57°53' E 010°53'1 2.5
2018-Feb-16 16:30N 57°53' E 010°55'2 4.3
2018-Feb-16 16:00N 57°51' E 010°54'5 9.2
2018-Feb-16 15:30N 57°47' E 010°49'8 1.2
2018-Feb-16 08:32N 57°43' E 010°36'1 8.1
2018-Feb-16 08:26N 57°43' E 010°37'4 8.7
2018-Feb-16 08:00N 57°40' E 010°43'4 8.5
2018-Feb-16 07:30N 57°38' E 010°49'4 8.1
2018-Feb-16 07:00N 57°35' E 010°55'4 8.6
2018-Feb-16 06:30N 57°33' E 011°01'5 9.3
2018-Feb-16 06:00N 57°30' E 011°08'4 8.7
2018-Feb-16 05:30N 57°28' E 011°15'4 7.8
2018-Feb-16 05:00N 57°26' E 011°21'4 8.8
2018-Feb-16 04:30N 57°22' E 011°27'4 8.4
2018-Feb-16 04:00N 57°20' E 011°33'4 7.5
2018-Feb-16 03:30N 57°18' E 011°38'36 0.8
2018-Feb-14 07:29N 56°42' E 011°49'  
Track history (hours):
 
Tides and Currents Weather Stations Pressure Air Temp Water Temp Dewpoint Dewpoint Depression Visibility Wind Speed Wind Dir Waves Ship Positions

Callsign SLRE (name unknown)

Last reported at 2018-Feb-18 06:18 UTC. Time now 2018-Feb-22 01:25 UTC.
Position N 57°09' E 011°57'.

AWS

Date/timePositionNaut miles runAvg speedWind from/ knotsBaromVisibWave heightAir tempDewpointWater temp
2018-Feb-18 06:18N 57°09' E 011°57'1 2.6
2018-Feb-18 05:59N 57°10' E 011°57'3 4.5
2018-Feb-18 05:24N 57°12' E 011°54'5 9.3
2018-Feb-18 04:50N 57°16' E 011°47'3 8.9
2018-Feb-18 04:30N 57°18' E 011°44'5 9.1
2018-Feb-18 04:01N 57°21' E 011°38'5 9.5
2018-Feb-18 03:30N 57°25' E 011°33'5 9.1
2018-Feb-18 03:00N 57°28' E 011°28'4 8.5
2018-Feb-18 02:31N 57°32' E 011°22'4 8.0
2018-Feb-18 02:01N 57°35' E 011°17'4 8.0
2018-Feb-18 01:30N 57°38' E 011°12'4 8.1
2018-Feb-18 00:59N 57°41' E 011°07'5 8.4
2018-Feb-18 00:22N 57°45' E 011°01'3 8.8
2018-Feb-18 00:00N 57°47' E 010°57'3 5.1
2018-Feb-17 23:26N 57°50' E 010°55'4 4.6
2018-Feb-17 22:34N 57°53' E 010°50'0 2.3
2018-Feb-17 22:27N 57°53' E 010°49'6 0.8
2018-Feb-17 14:31N 57°52' E 010°37'0 2.7
2018-Feb-17 14:22N 57°52' E 010°38'1 2.7
2018-Feb-17 13:54N 57°52' E 010°40'1 2.7
2018-Feb-17 13:30N 57°52' E 010°42'1 2.7
2018-Feb-17 13:00N 57°52' E 010°45'1 2.6
2018-Feb-17 12:30N 57°52' E 010°47'1 2.5
2018-Feb-17 12:00N 57°53' E 010°49'1 2.5
2018-Feb-17 11:30N 57°53' E 010°52'1 2.6
2018-Feb-17 11:00N 57°54' E 010°54'1 2.7
2018-Feb-17 10:31N 57°55' E 010°55'1 2.9
2018-Feb-17 10:00N 57°56' E 010°57'1 2.8
2018-Feb-17 09:30N 57°57' E 010°59'1 2.8
2018-Feb-17 09:00N 57°58' E 011°01'2 3.5
2018-Feb-17 08:30N 57°58' E 011°04'1 2.3
2018-Feb-17 08:00N 57°58' E 011°03'1 2.5
2018-Feb-17 07:30N 57°57' E 011°01'1 2.6
2018-Feb-17 07:00N 57°55' E 011°01'1 2.7
2018-Feb-17 06:31N 57°54' E 010°59'1 2.8
2018-Feb-17 06:00N 57°54' E 010°57'1 2.8
2018-Feb-17 05:30N 57°53' E 010°54'1 2.9
2018-Feb-17 05:00N 57°52' E 010°52'2 3.1
2018-Feb-17 04:18N 57°52' E 010°48'3 0.6
2018-Feb-16 23:33N 57°53' E 010°43'1 9.0
2018-Feb-16 23:30N 57°53' E 010°44'2 0.4
2018-Feb-16 19:22N 57°51' E 010°42'1 2.5
2018-Feb-16 19:00N 57°51' E 010°44'1 2.5
2018-Feb-16 18:30N 57°52' E 010°46'1 2.6
2018-Feb-16 18:00N 57°52' E 010°48'1 2.6
2018-Feb-16 17:30N 57°52' E 010°51'1 2.6
2018-Feb-16 16:59N 57°53' E 010°53'1 2.5
2018-Feb-16 16:30N 57°53' E 010°55'2 4.3
2018-Feb-16 16:00N 57°51' E 010°54'5 9.2
2018-Feb-16 15:30N 57°47' E 010°49'8 1.2
2018-Feb-16 08:32N 57°43' E 010°36'1 8.1
2018-Feb-16 08:26N 57°43' E 010°37'4 8.7
2018-Feb-16 08:00N 57°40' E 010°43'4 8.5
2018-Feb-16 07:30N 57°38' E 010°49'4 8.1
2018-Feb-16 07:00N 57°35' E 010°55'4 8.6
2018-Feb-16 06:30N 57°33' E 011°01'5 9.3
2018-Feb-16 06:00N 57°30' E 011°08'4 8.7
2018-Feb-16 05:30N 57°28' E 011°15'4 7.8
2018-Feb-16 05:00N 57°26' E 011°21'4 8.8
2018-Feb-16 04:30N 57°22' E 011°27'4 8.4
2018-Feb-16 04:00N 57°20' E 011°33'4 7.5
2018-Feb-16 03:30N 57°18' E 011°38'36 0.8
2018-Feb-14 07:29N 56°42' E 011°49'  

Dump ship's entire track history